createdAt,value
2022-08-06T00:00:07.263Z,14.32
2022-08-06T00:02:31.161Z,12.63
2022-08-06T00:05:03.771Z,11.30
2022-08-06T00:07:45.357Z,11.25
2022-08-06T00:10:18.376Z,14.90
2022-08-06T00:12:47.968Z,12.57
2022-08-06T00:15:19.994Z,12.55
2022-08-06T00:18:07.040Z,13.43
2022-08-06T00:20:41.684Z,25.70
2022-08-06T00:23:16.382Z,15.38
2022-08-06T00:25:52.054Z,15.27
2022-08-06T00:28:30.500Z,16.90
2022-08-06T00:31:05.638Z,17.88
2022-08-06T00:33:44.531Z,17.40
2022-08-06T00:36:24.920Z,14.77
2022-08-06T00:38:53.720Z,16.83
2022-08-06T00:41:22.581Z,16.17
2022-08-06T00:43:50.204Z,14.43
2022-08-06T00:46:17.893Z,13.43
2022-08-06T00:48:54.022Z,13.23
2022-08-06T00:51:24.455Z,13.63
2022-08-06T00:54:10.569Z,17.95
2022-08-06T00:56:38.117Z,12.10
2022-08-06T00:59:10.819Z,13.05
2022-08-06T01:01:50.343Z,14.45
2022-08-06T01:04:19.888Z,12.07
2022-08-06T01:06:56.775Z,14.20
2022-08-06T01:09:27.228Z,12.38
2022-08-06T01:12:00.198Z,14.23
2022-08-06T01:14:38.341Z,12.60
2022-08-06T01:17:34.087Z,12.52
2022-08-06T01:22:01.500Z,13.30
2022-08-06T01:23:53.346Z,16.00
2022-08-06T01:26:37.336Z,14.75
2022-08-06T01:29:19.468Z,15.73
2022-08-06T01:32:06.194Z,15.85
2022-08-06T01:34:47.250Z,13.60
2022-08-06T01:37:38.824Z,16.65
2022-08-06T01:40:17.660Z,17.30
2022-08-06T01:42:54.328Z,17.63
2022-08-06T01:45:42.639Z,16.95
2022-08-06T01:48:28.868Z,17.58
2022-08-06T01:51:02.978Z,17.17
2022-08-06T01:54:05.278Z,16.85
2022-08-06T01:56:31.036Z,15.43
2022-08-06T01:59:04.559Z,15.30
2022-08-06T02:01:53.996Z,14.23
2022-08-06T02:04:30.251Z,15.88
2022-08-06T02:07:02.423Z,13.75
2022-08-06T02:09:37.821Z,13.80
2022-08-06T02:12:17.357Z,13.85
2022-08-06T02:15:00.660Z,13.35
2022-08-06T02:18:04.454Z,13.00
2022-08-06T02:20:53.089Z,13.80
2022-08-06T02:23:33.060Z,14.32
2022-08-06T02:26:04.537Z,12.88
2022-08-06T02:28:35.261Z,12.55
2022-08-06T02:31:06.816Z,13.48
2022-08-06T02:34:02.828Z,11.90
2022-08-06T02:36:51.267Z,15.82
2022-08-06T02:39:52.958Z,12.00
2022-08-06T02:42:40.198Z,12.77
2022-08-06T02:45:24.915Z,11.65
2022-08-06T02:48:22.246Z,12.48
2022-08-06T02:51:44.058Z,13.98
2022-08-06T02:54:13.301Z,11.55
2022-08-06T02:56:48.170Z,10.75
2022-08-06T02:59:25.055Z,12.38
2022-08-06T03:02:05.431Z,11.15
2022-08-06T03:04:37.349Z,13.55
2022-08-06T03:07:26.430Z,11.07
2022-08-06T03:09:56.536Z,9.25
2022-08-06T03:12:29.264Z,8.93
2022-08-06T03:15:07.633Z,9.27
2022-08-06T03:17:42.277Z,10.32
2022-08-06T03:20:19.648Z,9.30
2022-08-06T03:22:59.937Z,9.48
2022-08-06T03:25:31.579Z,10.70
2022-08-06T03:28:02.729Z,8.68
2022-08-06T03:30:34.035Z,8.02
2022-08-06T03:33:29.044Z,10.77
2022-08-06T03:36:01.922Z,8.98
2022-08-06T03:38:47.217Z,9.82
2022-08-06T03:41:23.041Z,8.82
2022-08-06T03:44:04.008Z,8.38
2022-08-06T03:46:59.777Z,8.27
2022-08-06T03:49:43.775Z,8.00
2022-08-06T03:52:22.996Z,7.45
2022-08-06T03:54:56.464Z,8.82
2022-08-06T03:57:40.407Z,7.78
2022-08-06T04:00:11.899Z,7.78
2022-08-06T04:02:50.969Z,11.90
2022-08-06T04:05:26.171Z,8.88
2022-08-06T04:07:58.473Z,7.40
2022-08-06T04:10:37.550Z,9.35
2022-08-06T04:13:40.419Z,7.13
2022-08-06T04:16:02.260Z,8.80
2022-08-06T04:18:42.163Z,7.88
2022-08-06T04:21:20.822Z,9.30
2022-08-06T04:24:05.382Z,8.07
2022-08-06T04:26:40.618Z,9.48
2022-08-06T04:29:12.527Z,7.05
2022-08-06T04:32:11.323Z,9.05
2022-08-06T04:34:33.088Z,8.05
2022-08-06T04:37:06.249Z,7.78
2022-08-06T04:39:50.034Z,8.02
2022-08-06T04:42:19.406Z,11.38
2022-08-06T04:44:59.273Z,6.57
2022-08-06T04:47:41.518Z,6.47
2022-08-06T04:50:11.582Z,7.55
2022-08-06T04:52:49.251Z,6.97
2022-08-06T04:55:24.990Z,6.93
2022-08-06T04:58:11.453Z,7.93
2022-08-06T05:01:01.030Z,7.38
2022-08-06T05:04:06.571Z,6.93
2022-08-06T05:06:47.116Z,8.23
2022-08-06T05:09:38.253Z,6.25
2022-08-06T05:12:53.326Z,8.27
2022-08-06T05:15:31.582Z,7.78
2022-08-06T05:19:15.785Z,8.80
2022-08-06T05:21:18.154Z,11.20
2022-08-06T05:23:54.591Z,9.65
2022-08-06T05:26:26.362Z,10.27
2022-08-06T05:28:54.353Z,9.98
2022-08-06T05:31:40.648Z,7.28
2022-08-06T05:34:12.822Z,8.48
2022-08-06T05:36:42.233Z,7.35
2022-08-06T05:39:51.412Z,7.75
2022-08-06T05:41:59.640Z,8.02
2022-08-06T05:44:29.714Z,9.32
2022-08-06T05:47:11.107Z,6.82
2022-08-06T05:49:58.465Z,6.88
2022-08-06T05:52:48.750Z,7.47
2022-08-06T05:55:42.979Z,10.80
2022-08-06T05:58:19.253Z,7.50
2022-08-06T06:00:48.142Z,7.75
2022-08-06T06:03:33.148Z,6.57
2022-08-06T06:06:17.467Z,8.35
2022-08-06T06:08:58.698Z,7.28
2022-08-06T06:11:54.847Z,9.20
2022-08-06T06:14:41.787Z,6.75
2022-08-06T06:17:39.011Z,8.45
2022-08-06T06:21:03.075Z,11.35
2022-08-06T06:23:33.888Z,12.95
2022-08-06T06:26:33.041Z,6.80
2022-08-06T06:30:02.142Z,8.73
2022-08-06T06:32:53.783Z,12.00
2022-08-06T06:35:36.896Z,9.20
2022-08-06T06:38:18.777Z,6.45
2022-08-06T06:41:20.529Z,7.85
2022-08-06T06:44:17.122Z,6.97
2022-08-06T06:47:04.767Z,5.68
2022-08-06T06:50:01.332Z,7.35
2022-08-06T06:52:39.987Z,6.63
2022-08-06T06:55:27.089Z,5.60
2022-08-06T06:58:27.046Z,6.45
2022-08-06T07:01:14.581Z,6.72
2022-08-06T07:03:48.805Z,7.80
2022-08-06T07:06:31.576Z,8.57
2022-08-06T07:09:14.886Z,6.38
2022-08-06T07:12:02.872Z,6.05
2022-08-06T07:14:36.301Z,12.60
2022-08-06T07:17:45.583Z,7.22
2022-08-06T07:19:57.799Z,14.27
2022-08-06T07:22:27.993Z,15.90
2022-08-06T07:25:01.917Z,7.60
2022-08-06T07:27:44.949Z,12.02
2022-08-06T07:30:21.225Z,7.43
2022-08-06T07:32:53.503Z,5.63
2022-08-06T07:35:21.748Z,6.10
2022-08-06T07:38:00.988Z,7.40
2022-08-06T07:40:52.794Z,12.77
2022-08-06T07:43:35.049Z,11.75
2022-08-06T07:46:07.680Z,4.32
2022-08-06T07:48:52.388Z,6.88
2022-08-06T07:51:34.450Z,3.97
2022-08-06T07:54:09.359Z,1.95
2022-08-06T07:57:00.458Z,6.45
2022-08-06T07:59:31.267Z,2.92
2022-08-06T08:02:02.531Z,28.27
2022-08-06T08:04:52.112Z,9.75
2022-08-06T08:07:37.983Z,4.55
2022-08-06T08:10:15.492Z,5.88
2022-08-06T08:12:45.269Z,4.50
2022-08-06T08:15:23.222Z,2.00
2022-08-06T08:17:57.687Z,1.08
2022-08-06T08:20:36.469Z,3.03
2022-08-06T08:23:08.503Z,2.97
2022-08-06T08:25:53.194Z,7.55
2022-08-06T08:28:22.145Z,4.60
2022-08-06T08:30:50.587Z,2.95
2022-08-06T08:33:21.023Z,5.38
2022-08-06T08:36:00.299Z,7.68
2022-08-06T08:38:34.950Z,6.68
2022-08-06T08:41:22.155Z,11.07
2022-08-06T08:44:03.816Z,3.05
2022-08-06T08:46:37.930Z,3.83
2022-08-06T08:49:26.277Z,13.98
2022-08-06T08:51:56.763Z,7.78
2022-08-06T08:54:28.625Z,5.28
2022-08-06T08:57:11.133Z,2.53
2022-08-06T08:59:56.919Z,14.85
2022-08-06T09:02:28.610Z,8.63
2022-08-06T09:04:59.415Z,3.80
2022-08-06T09:07:36.803Z,5.13
2022-08-06T09:10:09.317Z,3.63
2022-08-06T09:12:45.732Z,6.50
2022-08-06T09:15:19.401Z,4.60
2022-08-06T09:18:26.469Z,8.00
2022-08-06T09:20:37.803Z,9.10
2022-08-06T09:23:19.150Z,5.15
2022-08-06T09:25:58.838Z,3.00
2022-08-06T09:28:46.802Z,1.98
2022-08-06T09:31:22.005Z,1.88
2022-08-06T09:34:29.260Z,5.10
2022-08-06T09:36:56.974Z,4.18
2022-08-06T09:39:46.562Z,4.13
2022-08-06T09:42:48.147Z,2.58
2022-08-06T09:45:42.260Z,1.98
2022-08-06T09:48:17.347Z,1.20
2022-08-06T09:50:51.355Z,1.80
2022-08-06T09:53:21.710Z,1.67
2022-08-06T09:55:53.161Z,7.32
2022-08-06T09:58:37.784Z,10.90
2022-08-06T10:01:23.393Z,8.93
2022-08-06T10:04:03.396Z,3.05
2022-08-06T10:06:39.875Z,1.55
2022-08-06T10:09:21.041Z,1.77
2022-08-06T10:12:01.611Z,0.80
2022-08-06T10:14:33.640Z,1.35
2022-08-06T10:17:15.527Z,1.80
2022-08-06T10:20:09.690Z,5.20
2022-08-06T10:22:50.085Z,4.45
2022-08-06T10:25:29.568Z,5.85
2022-08-06T10:28:01.586Z,3.08
2022-08-06T10:30:35.761Z,4.53
2022-08-06T10:33:18.348Z,3.88
2022-08-06T10:35:59.022Z,4.90
2022-08-06T10:38:38.687Z,3.88
2022-08-06T10:41:59.924Z,4.13
2022-08-06T10:44:07.067Z,5.85
2022-08-06T10:46:36.406Z,3.95
2022-08-06T10:50:25.294Z,4.95
2022-08-06T10:51:58.995Z,5.45
2022-08-06T10:54:28.200Z,6.97
2022-08-06T10:56:56.933Z,4.10
2022-08-06T10:59:40.965Z,2.67
2022-08-06T11:02:36.112Z,15.15
2022-08-06T11:05:17.915Z,6.70
2022-08-06T11:08:19.679Z,3.22
2022-08-06T11:11:29.905Z,5.55
2022-08-06T11:14:14.836Z,8.45
2022-08-06T11:17:00.647Z,8.48
2022-08-06T11:19:58.139Z,13.57
2022-08-06T11:22:54.157Z,8.23
2022-08-06T11:25:44.073Z,7.05
2022-08-06T11:28:15.612Z,6.93
2022-08-06T11:30:51.701Z,11.18
2022-08-06T11:33:42.935Z,13.38
2022-08-06T11:36:26.061Z,6.88
2022-08-06T11:38:59.179Z,7.93
2022-08-06T11:41:57.020Z,11.15
2022-08-06T11:45:08.144Z,12.00
2022-08-06T11:48:26.830Z,19.45
2022-08-06T11:50:55.635Z,19.58
2022-08-06T11:53:52.405Z,10.07
2022-08-06T11:56:25.545Z,6.88
2022-08-06T11:59:16.170Z,5.05
2022-08-06T12:01:47.797Z,4.10
2022-08-06T12:04:36.325Z,3.10
2022-08-06T12:07:37.257Z,2.50
2022-08-06T12:10:07.735Z,4.40
2022-08-06T12:12:46.796Z,2.60
2022-08-06T12:15:20.134Z,3.58
2022-08-06T12:18:19.038Z,3.88
2022-08-06T12:20:49.432Z,4.03
2022-08-06T12:23:53.991Z,7.13
2022-08-06T12:26:13.658Z,4.13
2022-08-06T12:28:44.071Z,6.07
2022-08-06T12:31:36.274Z,3.50
2022-08-06T12:33:59.709Z,3.78
2022-08-06T12:36:35.364Z,3.90
2022-08-06T12:39:19.377Z,3.08
2022-08-06T12:41:47.583Z,3.25
2022-08-06T12:44:20.225Z,5.75
2022-08-06T12:47:13.952Z,4.75
2022-08-06T12:49:43.723Z,2.65
2022-08-06T12:52:30.108Z,3.28
2022-08-06T12:54:58.015Z,3.97
2022-08-06T12:57:58.758Z,3.80
2022-08-06T13:00:16.937Z,3.83
2022-08-06T13:02:46.538Z,5.88
2022-08-06T13:05:15.809Z,6.53
2022-08-06T13:07:53.834Z,5.43
2022-08-06T13:10:35.354Z,5.78
2022-08-06T13:14:12.409Z,6.65
2022-08-06T13:16:06.159Z,6.93
2022-08-06T13:18:41.992Z,5.68
2022-08-06T13:21:21.136Z,9.95
2022-08-06T13:23:55.819Z,6.47
2022-08-06T13:26:29.490Z,8.43
2022-08-06T13:30:32.047Z,8.27
2022-08-06T13:32:27.712Z,8.52
2022-08-06T13:35:17.778Z,5.88
2022-08-06T13:37:57.395Z,8.70
2022-08-06T13:40:51.717Z,8.38
2022-08-06T13:43:55.852Z,8.52
2022-08-06T13:46:32.800Z,8.43
2022-08-06T13:49:12.249Z,15.57
2022-08-06T13:51:48.770Z,23.80
2022-08-06T13:54:28.247Z,13.55
2022-08-06T13:56:59.953Z,11.00
2022-08-06T13:59:40.599Z,8.35
2022-08-06T14:02:12.475Z,8.10
2022-08-06T14:04:40.706Z,14.05
2022-08-06T14:07:08.427Z,18.00
2022-08-06T14:09:41.169Z,16.80
2022-08-06T14:12:29.238Z,14.30
2022-08-06T14:14:59.214Z,14.95
2022-08-06T14:17:34.054Z,14.05
2022-08-06T14:20:17.619Z,15.55
2022-08-06T14:22:48.182Z,15.68
2022-08-06T14:25:17.299Z,19.20
2022-08-06T14:27:45.110Z,13.23
2022-08-06T14:30:26.367Z,21.70
2022-08-06T14:33:11.207Z,19.65
2022-08-06T14:35:51.582Z,15.95
2022-08-06T14:38:32.749Z,17.90
2022-08-06T14:41:52.271Z,14.40
2022-08-06T14:44:29.895Z,16.05
2022-08-06T14:46:59.369Z,10.95
2022-08-06T14:49:33.313Z,7.70
2022-08-06T14:52:20.182Z,12.75
2022-08-06T14:54:55.887Z,12.32
2022-08-06T14:58:03.609Z,11.57
2022-08-06T15:00:21.864Z,6.90
2022-08-06T15:02:55.910Z,7.72
2022-08-06T15:05:42.721Z,5.72
2022-08-06T15:08:11.250Z,6.30
2022-08-06T15:10:40.267Z,7.32
2022-08-06T15:13:07.754Z,29.00
2022-08-06T15:15:46.785Z,14.95
2022-08-06T15:18:40.405Z,7.90
2022-08-06T15:21:10.163Z,5.55
2022-08-06T15:23:54.026Z,5.82
2022-08-06T15:26:42.273Z,5.72
2022-08-06T15:29:15.562Z,3.65
2022-08-06T15:31:45.647Z,12.43
2022-08-06T15:34:19.642Z,15.45
2022-08-06T15:37:02.154Z,28.02
2022-08-06T15:39:53.553Z,10.25
2022-08-06T15:42:24.376Z,7.57
2022-08-06T15:44:54.008Z,9.65
2022-08-06T15:47:31.570Z,9.27
2022-08-06T15:50:05.072Z,6.70
2022-08-06T15:52:42.611Z,7.60
2022-08-06T15:55:16.558Z,7.13
2022-08-06T15:58:05.342Z,28.50
2022-08-06T16:00:44.173Z,13.02
2022-08-06T16:03:27.742Z,11.43
2022-08-06T16:06:09.654Z,10.48
2022-08-06T16:08:43.717Z,10.45
2022-08-06T16:11:15.314Z,6.65
2022-08-06T16:13:53.681Z,8.93
2022-08-06T16:16:27.414Z,5.38
2022-08-06T16:19:02.544Z,7.25
2022-08-06T16:21:33.836Z,7.55
2022-08-06T16:24:03.909Z,5.63
2022-08-06T16:26:40.652Z,8.68
2022-08-06T16:29:12.391Z,18.38
2022-08-06T16:31:47.480Z,22.73
2022-08-06T16:34:23.124Z,9.73
2022-08-06T16:36:53.081Z,6.15
2022-08-06T16:42:10.407Z,4.45
2022-08-06T16:54:11.640Z,11.05
2022-08-06T16:55:52.077Z,19.63
2022-08-06T16:58:35.275Z,11.35
2022-08-06T17:04:00.651Z,8.77
2022-08-06T17:06:31.100Z,8.27
2022-08-06T17:09:02.263Z,5.28
2022-08-06T17:11:57.541Z,5.43
2022-08-06T17:14:36.204Z,4.40
2022-08-06T17:17:08.571Z,3.83
2022-08-06T17:19:38.237Z,6.25
2022-08-06T17:22:09.281Z,7.10
2022-08-06T17:24:42.538Z,5.80
2022-08-06T17:27:16.124Z,5.88
2022-08-06T17:29:48.981Z,6.20
2022-08-06T17:35:14.903Z,11.00
2022-08-06T17:37:46.113Z,11.23
2022-08-06T17:40:19.675Z,12.75
2022-08-06T17:43:23.004Z,16.40
2022-08-06T17:46:02.608Z,12.30
2022-08-06T17:48:48.359Z,20.30
2022-08-06T17:51:21.314Z,11.73
2022-08-06T17:53:53.986Z,10.77
2022-08-06T17:56:29.137Z,7.75
2022-08-06T17:59:17.705Z,10.60
2022-08-06T18:01:51.063Z,10.15
2022-08-06T18:04:29.983Z,12.98
2022-08-06T18:07:12.214Z,15.38
2022-08-06T18:10:09.083Z,12.63
2022-08-06T18:12:49.312Z,10.50
2022-08-06T18:15:22.715Z,7.53
2022-08-06T18:18:03.874Z,9.18
2022-08-06T18:20:38.351Z,10.15
2022-08-06T18:23:21.574Z,6.45
2022-08-06T18:25:57.615Z,5.60
2022-08-06T18:28:39.973Z,4.90
2022-08-06T18:31:20.085Z,4.38
2022-08-06T18:33:53.517Z,4.43
2022-08-06T18:36:32.974Z,4.20
2022-08-06T18:39:01.706Z,4.43
2022-08-06T18:41:32.948Z,3.97
2022-08-06T18:44:01.736Z,4.13
2022-08-06T18:46:56.176Z,10.13
2022-08-06T18:49:26.747Z,20.33
2022-08-06T18:52:01.314Z,14.25
2022-08-06T18:54:30.154Z,12.02
2022-08-06T18:56:58.149Z,9.98
2022-08-06T18:59:51.159Z,12.85
2022-08-06T19:02:23.179Z,10.43
2022-08-06T19:04:55.334Z,8.20
2022-08-06T19:07:27.011Z,11.32
2022-08-06T19:10:14.756Z,14.55
2022-08-06T19:12:43.163Z,9.88
2022-08-06T19:15:12.446Z,9.57
2022-08-06T19:18:10.143Z,8.25
2022-08-06T19:20:31.008Z,7.60
2022-08-06T19:23:02.681Z,7.55
2022-08-06T19:25:52.036Z,6.90
2022-08-06T19:28:35.902Z,7.32
2022-08-06T19:31:11.451Z,7.18
2022-08-06T19:33:40.021Z,9.57
2022-08-06T19:36:30.920Z,10.02
2022-08-06T19:38:55.624Z,5.70
2022-08-06T19:42:00.353Z,4.32
2022-08-06T19:44:26.019Z,3.65
2022-08-06T19:47:00.570Z,3.63
2022-08-06T19:49:40.666Z,3.53
2022-08-06T19:52:09.705Z,2.75
2022-08-06T19:54:41.545Z,4.00
2022-08-06T19:57:13.554Z,4.00
2022-08-06T20:00:47.771Z,6.28
2022-08-06T20:02:31.645Z,7.15
2022-08-06T20:04:59.229Z,6.93
2022-08-06T20:07:28.040Z,6.18
2022-08-06T20:10:00.946Z,4.65
2022-08-06T20:12:35.332Z,4.05
2022-08-06T20:15:14.020Z,4.28
2022-08-06T20:17:49.321Z,8.10
2022-08-06T20:20:28.729Z,7.70
2022-08-06T20:23:08.665Z,10.85
2022-08-06T20:26:10.574Z,11.63
2022-08-06T20:29:08.672Z,7.47
2022-08-06T20:31:21.014Z,9.38
2022-08-06T20:33:57.947Z,9.88
2022-08-06T20:36:29.739Z,7.82
2022-08-06T20:38:58.872Z,7.15
2022-08-06T20:42:03.419Z,4.10
2022-08-06T20:44:19.686Z,5.28
2022-08-06T20:47:21.600Z,5.25
2022-08-06T20:50:02.360Z,3.78
2022-08-06T20:52:24.820Z,5.93
2022-08-06T20:54:56.594Z,4.13
2022-08-06T20:57:28.460Z,3.67
2022-08-06T20:59:59.302Z,3.30
2022-08-06T21:02:32.451Z,2.60
2022-08-06T21:05:13.942Z,2.75
2022-08-06T21:07:56.744Z,6.07
2022-08-06T21:10:31.796Z,3.47
2022-08-06T21:13:02.721Z,3.28
2022-08-06T21:15:54.330Z,3.40
2022-08-06T21:18:24.058Z,3.22
2022-08-06T21:20:55.439Z,5.55
2022-08-06T21:23:41.950Z,3.22
2022-08-06T21:26:15.989Z,2.90
2022-08-06T21:28:54.298Z,2.70
2022-08-06T21:31:24.563Z,2.85
2022-08-06T21:33:54.350Z,3.83
2022-08-06T21:36:26.763Z,3.15
2022-08-06T21:38:59.085Z,3.78
2022-08-06T21:41:54.634Z,3.40
2022-08-06T21:44:24.610Z,5.00
2022-08-06T21:46:58.994Z,3.88
2022-08-06T21:50:00.033Z,3.75
2022-08-06T21:52:28.350Z,3.97
2022-08-06T21:55:05.461Z,3.78
2022-08-06T21:57:48.144Z,3.70
2022-08-06T22:00:40.025Z,2.95
2022-08-06T22:04:38.325Z,3.50
2022-08-06T22:06:22.534Z,4.07
2022-08-06T22:08:54.572Z,4.35
2022-08-06T22:12:37.513Z,4.15
2022-08-06T22:14:17.069Z,5.18
2022-08-06T22:16:54.318Z,3.78
2022-08-06T22:19:33.414Z,3.97
2022-08-06T22:22:07.692Z,4.85
2022-08-06T22:24:37.672Z,5.70
2022-08-06T22:27:12.611Z,4.82
2022-08-06T22:30:04.278Z,6.20
2022-08-06T22:32:36.344Z,5.35
2022-08-06T22:35:09.300Z,3.22
2022-08-06T22:38:17.024Z,4.72
2022-08-06T22:40:28.627Z,5.85
2022-08-06T22:43:01.385Z,2.92
2022-08-06T22:46:00.357Z,3.10
2022-08-06T22:48:35.602Z,2.40
2022-08-06T22:51:10.622Z,8.57
2022-08-06T22:54:28.483Z,8.98
2022-08-06T22:56:30.423Z,5.72
2022-08-06T22:59:31.576Z,3.97
2022-08-06T23:02:06.470Z,3.20
2022-08-06T23:04:41.213Z,4.93
2022-08-06T23:07:10.840Z,3.70
2022-08-06T23:09:41.194Z,3.28
2022-08-06T23:12:18.438Z,3.10
2022-08-06T23:14:55.050Z,4.35
2022-08-06T23:17:24.270Z,4.50
2022-08-06T23:19:57.079Z,5.63
2022-08-06T23:22:28.957Z,5.90
2022-08-06T23:25:58.172Z,7.05
2022-08-06T23:27:45.542Z,4.53
2022-08-06T23:30:20.216Z,3.72
2022-08-06T23:32:50.086Z,3.65
2022-08-06T23:35:36.693Z,3.58
2022-08-06T23:38:31.510Z,3.58
2022-08-06T23:40:58.926Z,4.90
2022-08-06T23:43:30.552Z,6.60
2022-08-06T23:46:03.678Z,6.90
2022-08-06T23:48:32.893Z,5.10
2022-08-06T23:51:05.429Z,6.47
2022-08-06T23:54:08.936Z,5.30
2022-08-06T23:56:26.606Z,4.40
2022-08-06T23:58:57.328Z,5.00
